createdAt,value
2019-01-20T00:01:24.274Z,99815.89
2019-01-20T00:03:51.168Z,99815.27
2019-01-20T00:06:18.285Z,99818.97
2019-01-20T00:08:45.322Z,99812.75
2019-01-20T00:11:16.628Z,99815.18
2019-01-20T00:13:41.300Z,99814.90
2019-01-20T00:16:08.424Z,99810.56
2019-01-20T00:18:36.116Z,99807.58
2019-01-20T00:21:03.899Z,99802.25
2019-01-20T00:23:30.967Z,99799.68
2019-01-20T00:25:58.045Z,99799.27
2019-01-20T00:28:25.988Z,99799.11
2019-01-20T00:30:53.177Z,99799.61
2019-01-20T00:33:20.210Z,99797.77
2019-01-20T00:35:46.940Z,99788.84
2019-01-20T00:38:13.919Z,99794.78
2019-01-20T00:40:41.064Z,99789.31
2019-01-20T00:43:08.021Z,99794.27
2019-01-20T00:45:35.306Z,99791.32
2019-01-20T00:48:02.421Z,99790.14
2019-01-20T00:50:29.432Z,99791.12
2019-01-20T00:52:57.367Z,99788.55
2019-01-20T00:55:25.152Z,99791.91
2019-01-20T00:57:52.911Z,99788.41
2019-01-20T01:00:20.063Z,99792.17
2019-01-20T01:02:46.721Z,99791.39
2019-01-20T01:05:14.549Z,99789.27
2019-01-20T01:07:41.714Z,99787.35
2019-01-20T01:10:08.825Z,99787.23
2019-01-20T01:12:36.799Z,99783.06
2019-01-20T01:15:03.970Z,99786.14
2019-01-20T01:17:31.129Z,99790.86
2019-01-20T01:19:58.513Z,99787.83
2019-01-20T01:22:26.242Z,99794.31
2019-01-20T01:24:52.930Z,99797.30
2019-01-20T01:27:19.835Z,99792.88
2019-01-20T01:29:47.795Z,99789.73
2019-01-20T01:32:15.579Z,99791.42
2019-01-20T01:34:42.688Z,99787.83
2019-01-20T01:37:09.936Z,99780.00
2019-01-20T01:39:36.941Z,99779.14
2019-01-20T01:42:04.618Z,99781.20
2019-01-20T01:44:31.801Z,99775.75
2019-01-20T01:46:59.590Z,99778.33
2019-01-20T01:49:26.747Z,99766.75
2019-01-20T01:51:54.028Z,99769.44
2019-01-20T01:54:21.090Z,99765.39
2019-01-20T01:56:48.151Z,99765.40
2019-01-20T01:59:15.301Z,99767.93
2019-01-20T02:01:43.123Z,99764.22
2019-01-20T02:04:10.817Z,99764.26
2019-01-20T02:06:38.504Z,99763.48
2019-01-20T02:09:05.683Z,99760.38
2019-01-20T02:11:32.762Z,99757.67
2019-01-20T02:13:59.835Z,99757.80
2019-01-20T02:16:27.727Z,99757.11
2019-01-20T02:18:54.841Z,99757.56
2019-01-20T02:21:21.814Z,99752.23
2019-01-20T02:23:48.942Z,99757.94
2019-01-20T02:26:16.751Z,99754.05
2019-01-20T02:28:43.476Z,99753.93
2019-01-20T02:31:11.245Z,99753.06
2019-01-20T02:33:38.364Z,99750.28
2019-01-20T02:36:05.541Z,99747.41
2019-01-20T02:38:32.715Z,99746.48
2019-01-20T02:41:00.328Z,99738.95
2019-01-20T02:43:28.137Z,99736.61
2019-01-20T02:45:55.349Z,99732.72
2019-01-20T02:48:23.170Z,99731.45
2019-01-20T02:50:50.904Z,99731.20
2019-01-20T02:53:17.950Z,99732.89
2019-01-20T02:55:44.698Z,99730.59
2019-01-20T02:58:13.601Z,99724.13
2019-01-20T03:00:41.462Z,99726.41
2019-01-20T03:03:08.573Z,99722.53
2019-01-20T03:05:35.725Z,99722.74
2019-01-20T03:08:03.549Z,99723.02
2019-01-20T03:10:30.628Z,99723.14
2019-01-20T03:12:57.313Z,99720.61
2019-01-20T03:15:24.553Z,99723.88
2019-01-20T03:17:51.737Z,99720.52
2019-01-20T03:20:19.343Z,99716.48
2019-01-20T03:22:46.576Z,99709.77
2019-01-20T03:25:15.432Z,99711.81
2019-01-20T03:27:42.694Z,99711.61
2019-01-20T03:30:10.323Z,99709.48
2019-01-20T03:32:38.206Z,99711.30
2019-01-20T03:35:05.472Z,99709.45
2019-01-20T03:37:33.223Z,99702.45
2019-01-20T03:40:00.843Z,99705.86
2019-01-20T03:42:27.590Z,99706.96
2019-01-20T03:44:54.691Z,99703.69
2019-01-20T03:47:21.784Z,99700.98
2019-01-20T03:49:49.903Z,99697.67
2019-01-20T03:52:17.659Z,99699.76
2019-01-20T03:54:44.823Z,99697.02
2019-01-20T03:57:11.914Z,99691.34
2019-01-20T03:59:39.725Z,99693.22
2019-01-20T04:02:07.474Z,99685.41
2019-01-20T04:04:34.603Z,99688.92
2019-01-20T04:07:01.703Z,99693.06
2019-01-20T04:09:29.580Z,99690.16
2019-01-20T04:11:56.666Z,99689.17
2019-01-20T04:14:23.366Z,99693.51
2019-01-20T04:16:50.736Z,99694.66
2019-01-20T04:19:18.572Z,99691.38
2019-01-20T04:21:45.549Z,99692.25
2019-01-20T04:24:12.736Z,99687.13
2019-01-20T04:26:39.395Z,99682.22
2019-01-20T04:29:06.549Z,99686.03
2019-01-20T04:31:33.668Z,99688.88
2019-01-20T04:34:00.810Z,99695.14
2019-01-20T04:36:28.455Z,99688.81
2019-01-20T04:38:55.632Z,99693.34
2019-01-20T04:41:22.774Z,99686.84
2019-01-20T04:43:50.580Z,99693.18
2019-01-20T04:46:17.738Z,99690.08
2019-01-20T04:48:44.922Z,99684.30
2019-01-20T04:51:12.631Z,99692.86
2019-01-20T04:53:39.856Z,99681.12
2019-01-20T04:56:06.925Z,99677.59
2019-01-20T04:58:34.564Z,99681.45
2019-01-20T05:01:01.747Z,99683.73
2019-01-20T05:03:29.528Z,99679.60
2019-01-20T05:05:57.295Z,99689.09
2019-01-20T05:08:25.143Z,99683.81
2019-01-20T05:10:52.927Z,99683.11
2019-01-20T05:13:20.054Z,99679.03
2019-01-20T05:15:47.143Z,99676.66
2019-01-20T05:18:14.885Z,99671.59
2019-01-20T05:20:41.573Z,99669.13
2019-01-20T05:23:09.431Z,99670.28
2019-01-20T05:25:36.578Z,99666.19
2019-01-20T05:28:03.672Z,99674.66
2019-01-20T05:30:32.479Z,99665.33
2019-01-20T05:33:00.234Z,99669.98
2019-01-20T05:35:27.538Z,99672.33
2019-01-20T05:37:55.274Z,99670.60
2019-01-20T05:40:23.028Z,99671.14
2019-01-20T05:42:50.283Z,99667.83
2019-01-20T05:45:17.313Z,99665.61
2019-01-20T05:47:45.107Z,99666.69
2019-01-20T05:50:12.859Z,99663.70
2019-01-20T05:52:40.089Z,99664.59
2019-01-20T05:55:07.211Z,99668.08
2019-01-20T05:57:34.929Z,99670.77
2019-01-20T06:00:02.157Z,99674.09
2019-01-20T06:02:29.306Z,99670.23
2019-01-20T06:04:55.961Z,99671.05
2019-01-20T06:07:23.840Z,99674.77
2019-01-20T06:09:52.613Z,99675.67
2019-01-20T06:12:20.403Z,99680.37
2019-01-20T06:14:48.259Z,99677.27
2019-01-20T06:17:17.449Z,99678.81
2019-01-20T06:19:45.313Z,99681.20
2019-01-20T06:22:12.454Z,99674.56
2019-01-20T06:24:40.232Z,99680.70
2019-01-20T06:27:08.123Z,99680.66
2019-01-20T06:29:35.889Z,99683.61
2019-01-20T06:32:03.733Z,99682.63
2019-01-20T06:34:30.420Z,99683.89
2019-01-20T06:36:57.475Z,99688.63
2019-01-20T06:39:24.198Z,99691.83
2019-01-20T06:41:51.241Z,99697.10
2019-01-20T06:44:18.417Z,99696.78
2019-01-20T06:46:45.446Z,99699.06
2019-01-20T06:49:12.139Z,99696.45
2019-01-20T06:51:38.898Z,99701.03
2019-01-20T06:54:05.577Z,99695.47
2019-01-20T06:56:32.310Z,99700.09
2019-01-20T06:58:59.119Z,99698.83
2019-01-20T07:01:25.739Z,99702.31
2019-01-20T07:03:52.478Z,99696.70
2019-01-20T07:06:19.600Z,99701.77
2019-01-20T07:08:46.319Z,99704.10
2019-01-20T07:11:13.377Z,99704.43
2019-01-20T07:13:40.531Z,99710.53
2019-01-20T07:16:09.491Z,99708.56
2019-01-20T07:18:36.134Z,99712.05
2019-01-20T07:21:03.313Z,99707.70
2019-01-20T07:23:30.489Z,99709.17
2019-01-20T07:25:57.271Z,99704.48
2019-01-20T07:28:23.984Z,99707.91
2019-01-20T07:30:51.607Z,99709.83
2019-01-20T07:33:18.735Z,99713.23
2019-01-20T07:35:45.424Z,99710.82
2019-01-20T07:38:12.118Z,99711.27
2019-01-20T07:40:39.561Z,99708.80
2019-01-20T07:43:16.816Z,99709.67
2019-01-20T07:45:39.197Z,99716.80
2019-01-20T07:48:06.398Z,99714.21
2019-01-20T07:50:33.110Z,99715.89
2019-01-20T07:53:00.736Z,99712.16
2019-01-20T07:55:27.879Z,99714.73
2019-01-20T07:57:54.563Z,99718.47
2019-01-20T08:00:21.882Z,99716.82
2019-01-20T08:02:50.070Z,99721.02
2019-01-20T08:05:17.242Z,99717.99
2019-01-20T08:07:45.055Z,99727.73
2019-01-20T08:10:11.783Z,99723.88
2019-01-20T08:12:38.708Z,99721.17
2019-01-20T08:15:05.915Z,99727.75
2019-01-20T08:17:32.568Z,99724.67
2019-01-20T08:19:59.370Z,99724.66
2019-01-20T08:22:26.339Z,99729.64
2019-01-20T08:24:53.434Z,99730.81
2019-01-20T08:27:20.204Z,99734.77
2019-01-20T08:29:46.921Z,99736.20
2019-01-20T08:32:14.108Z,99735.08
2019-01-20T08:34:40.798Z,99734.94
2019-01-20T08:37:08.045Z,99734.92
2019-01-20T08:39:35.225Z,99735.28
2019-01-20T08:42:01.877Z,99735.06
2019-01-20T08:44:28.608Z,99740.78
2019-01-20T08:46:57.776Z,99741.14
2019-01-20T08:49:24.924Z,99747.44
2019-01-20T08:51:52.821Z,99749.92
2019-01-20T08:54:19.575Z,99751.10
2019-01-20T08:56:48.027Z,99753.66
2019-01-20T08:59:14.683Z,99754.14
2019-01-20T09:01:41.783Z,99749.84
2019-01-20T09:04:08.959Z,99746.83
2019-01-20T09:06:35.713Z,99749.93
2019-01-20T09:09:02.439Z,99749.97
2019-01-20T09:11:30.685Z,99750.96
2019-01-20T09:13:58.231Z,99746.91
2019-01-20T09:16:24.987Z,99750.34
2019-01-20T09:18:51.670Z,99757.52
2019-01-20T09:21:19.800Z,99757.75
2019-01-20T09:23:48.312Z,99752.41
2019-01-20T09:26:15.572Z,99750.47
2019-01-20T09:28:42.262Z,99755.71
2019-01-20T09:31:08.957Z,99744.52
2019-01-20T09:33:36.609Z,99757.73
2019-01-20T09:36:03.747Z,99752.23
2019-01-20T09:38:30.789Z,99756.80
2019-01-20T09:40:57.946Z,99749.55
2019-01-20T09:43:24.991Z,99745.56
2019-01-20T09:45:52.047Z,99744.19
2019-01-20T09:48:19.209Z,99747.24
2019-01-20T09:50:45.891Z,99748.61
2019-01-20T09:53:13.009Z,99742.65
2019-01-20T09:55:39.691Z,99744.48
2019-01-20T09:58:06.871Z,99747.00
2019-01-20T10:00:33.943Z,99741.95
2019-01-20T10:03:00.675Z,99734.06
2019-01-20T10:05:27.396Z,99734.41
2019-01-20T10:07:54.064Z,99731.12
2019-01-20T10:10:20.800Z,99730.52
2019-01-20T10:12:47.753Z,99727.09
2019-01-20T10:15:14.414Z,99733.34
2019-01-20T10:17:41.491Z,99730.86
2019-01-20T10:20:08.713Z,99728.77
2019-01-20T10:22:35.822Z,99724.63
2019-01-20T10:25:02.520Z,99719.92
2019-01-20T10:27:29.258Z,99722.94
2019-01-20T10:29:56.341Z,99724.62
2019-01-20T10:32:23.374Z,99719.70
2019-01-20T10:34:51.117Z,99718.55
2019-01-20T10:37:20.959Z,99722.23
2019-01-20T10:39:48.072Z,99726.27
2019-01-20T10:42:15.171Z,99722.88
2019-01-20T10:44:42.974Z,99721.48
2019-01-20T10:47:10.188Z,99720.56
2019-01-20T10:49:37.353Z,99717.55
2019-01-20T10:52:04.376Z,99714.58
2019-01-20T10:54:32.106Z,99714.39
2019-01-20T10:56:59.220Z,99715.04
2019-01-20T10:59:26.167Z,99712.33
2019-01-20T11:01:53.703Z,99707.27
2019-01-20T11:04:21.589Z,99706.30
2019-01-20T11:06:48.726Z,99700.51
2019-01-20T11:09:15.863Z,99700.83
2019-01-20T11:11:42.892Z,99700.56
2019-01-20T11:14:10.555Z,99694.61
2019-01-20T11:16:37.597Z,99697.55
2019-01-20T11:19:04.600Z,99696.33
2019-01-20T11:21:31.602Z,99696.63
2019-01-20T11:23:58.643Z,99691.72
2019-01-20T11:26:25.313Z,99694.53
2019-01-20T11:28:52.857Z,99693.95
2019-01-20T11:31:19.965Z,99699.80
2019-01-20T11:33:47.251Z,99697.09
2019-01-20T11:36:14.424Z,99697.56
2019-01-20T11:38:41.831Z,99697.37
2019-01-20T11:41:09.599Z,99694.13
2019-01-20T11:43:36.401Z,99694.13
2019-01-20T11:46:03.506Z,99693.71
2019-01-20T11:48:31.320Z,99692.37
2019-01-20T11:50:58.099Z,99693.66
2019-01-20T11:53:25.293Z,99697.45
2019-01-20T11:55:53.407Z,99699.03
2019-01-20T11:58:20.466Z,99697.63
2019-01-20T12:00:47.247Z,99699.11
2019-01-20T12:03:14.274Z,99695.86
2019-01-20T12:05:41.039Z,99695.80
2019-01-20T12:08:08.875Z,99693.87
2019-01-20T12:10:35.578Z,99697.45
2019-01-20T12:13:02.356Z,99689.34
2019-01-20T12:15:29.437Z,99698.13
2019-01-20T12:17:57.306Z,99693.23
2019-01-20T12:20:24.465Z,99686.85
2019-01-20T12:22:51.558Z,99682.09
2019-01-20T12:25:18.210Z,99679.09
2019-01-20T12:27:44.983Z,99676.93
2019-01-20T12:30:12.007Z,99675.63
2019-01-20T12:32:38.780Z,99669.64
2019-01-20T12:35:05.443Z,99669.09
2019-01-20T12:37:32.582Z,99666.98
2019-01-20T12:39:59.711Z,99667.84
2019-01-20T12:42:26.369Z,99664.65
2019-01-20T12:44:53.535Z,99664.30
2019-01-20T12:47:20.257Z,99666.35
2019-01-20T12:49:46.951Z,99663.83
2019-01-20T12:52:14.018Z,99662.36
2019-01-20T12:54:41.176Z,99661.31
2019-01-20T12:57:08.219Z,99654.06
2019-01-20T12:59:34.955Z,99652.16
2019-01-20T13:02:01.692Z,99646.64
2019-01-20T13:04:28.786Z,99652.02
2019-01-20T13:06:55.917Z,99652.87
2019-01-20T13:09:23.697Z,99654.67
2019-01-20T13:11:50.817Z,99652.70
2019-01-20T13:14:18.047Z,99650.25
2019-01-20T13:16:45.178Z,99653.48
2019-01-20T13:19:13.300Z,99649.84
2019-01-20T13:21:39.956Z,99652.17
2019-01-20T13:24:07.827Z,99649.67
2019-01-20T13:26:35.037Z,99648.68
2019-01-20T13:29:02.097Z,99645.78
2019-01-20T13:31:28.837Z,99643.02
2019-01-20T13:33:55.993Z,99650.27
2019-01-20T13:36:22.659Z,99650.55
2019-01-20T13:38:49.778Z,99647.52
2019-01-20T13:41:16.595Z,99651.11
2019-01-20T13:43:43.808Z,99655.87
2019-01-20T13:46:10.802Z,99653.34
2019-01-20T13:48:38.279Z,99658.77
2019-01-20T13:51:05.322Z,99660.25
2019-01-20T13:53:32.508Z,99664.02
2019-01-20T13:56:01.346Z,99666.73
2019-01-20T13:58:28.521Z,99670.03
2019-01-20T14:00:55.670Z,99673.02
2019-01-20T14:03:22.822Z,99674.27
2019-01-20T14:05:49.469Z,99681.11
2019-01-20T14:08:16.173Z,99680.23
2019-01-20T14:10:42.983Z,99681.72
2019-01-20T14:13:09.689Z,99678.66
2019-01-20T14:15:36.712Z,99682.50
2019-01-20T14:18:03.896Z,99680.70
2019-01-20T14:20:31.030Z,99683.09
2019-01-20T14:22:58.097Z,99685.16
2019-01-20T14:25:25.333Z,99686.41
2019-01-20T14:27:52.487Z,99684.46
2019-01-20T14:30:20.367Z,99682.02
2019-01-20T14:32:47.496Z,99682.20
2019-01-20T14:35:14.719Z,99688.64
2019-01-20T14:37:41.810Z,99685.08
2019-01-20T14:40:08.690Z,99690.02
2019-01-20T14:42:35.374Z,99690.80
2019-01-20T14:45:02.429Z,99690.16
2019-01-20T14:47:29.579Z,99692.64
2019-01-20T14:49:56.633Z,99691.28
2019-01-20T14:52:23.685Z,99696.03
2019-01-20T14:54:50.981Z,99695.19
2019-01-20T14:57:18.083Z,99695.89
2019-01-20T14:59:45.106Z,99694.84
2019-01-20T15:02:12.259Z,99695.44
2019-01-20T15:04:39.343Z,99699.58
2019-01-20T15:07:06.064Z,99702.34
2019-01-20T15:09:33.278Z,99703.75
2019-01-20T15:12:00.032Z,99702.55
2019-01-20T15:14:27.103Z,99706.34
2019-01-20T15:16:55.385Z,99702.63
2019-01-20T15:19:22.523Z,99707.66
2019-01-20T15:21:49.677Z,99707.11
2019-01-20T15:24:16.728Z,99706.29
2019-01-20T15:26:43.899Z,99717.39
2019-01-20T15:29:12.281Z,99717.41
2019-01-20T15:31:39.082Z,99717.40
2019-01-20T15:34:05.715Z,99718.72
2019-01-20T15:36:32.461Z,99722.90
2019-01-20T15:38:59.141Z,99723.51
2019-01-20T15:41:26.152Z,99723.73
2019-01-20T15:43:53.339Z,99727.19
2019-01-20T15:46:20.454Z,99729.05
2019-01-20T15:48:47.498Z,99728.65
2019-01-20T15:51:14.571Z,99726.78
2019-01-20T15:53:41.277Z,99735.17
2019-01-20T15:56:08.351Z,99738.55
2019-01-20T15:58:35.484Z,99738.19
2019-01-20T16:01:02.252Z,99741.45
2019-01-20T16:03:29.203Z,99741.84
2019-01-20T16:05:56.234Z,99752.52
2019-01-20T16:08:23.014Z,99752.99
2019-01-20T16:10:50.141Z,99751.70
2019-01-20T16:13:17.945Z,99750.17
2019-01-20T16:15:45.149Z,99751.47
2019-01-20T16:18:14.435Z,99750.27
2019-01-20T16:20:41.088Z,99751.80
2019-01-20T16:23:08.235Z,99749.49
2019-01-20T16:25:36.050Z,99748.55
2019-01-20T16:28:02.779Z,99752.31
2019-01-20T16:30:29.894Z,99748.19
2019-01-20T16:32:56.619Z,99752.47
2019-01-20T16:35:24.438Z,99757.08
2019-01-20T16:37:51.580Z,99762.39
2019-01-20T16:40:18.572Z,99766.41
2019-01-20T16:42:45.825Z,99768.22
2019-01-20T16:45:13.083Z,99773.67
2019-01-20T16:47:41.166Z,99772.15
2019-01-20T16:50:08.242Z,99772.90
2019-01-20T16:52:36.449Z,99779.66
2019-01-20T16:55:03.665Z,99781.92
2019-01-20T16:57:42.882Z,99785.03
2019-01-20T17:02:38.084Z,99792.48
2019-01-20T17:05:05.155Z,99791.16
2019-01-20T17:07:31.871Z,99797.48
2019-01-20T17:09:58.965Z,99797.45
2019-01-20T17:12:25.672Z,99797.47
2019-01-20T17:14:52.581Z,99797.64
2019-01-20T17:17:19.653Z,99796.71
2019-01-20T17:19:46.353Z,99806.19
2019-01-20T17:22:13.226Z,99803.89
2019-01-20T17:24:40.448Z,99803.53
2019-01-20T17:27:07.096Z,99806.09
2019-01-20T17:29:34.294Z,99807.91
2019-01-20T17:32:01.056Z,99811.63
2019-01-20T17:34:27.782Z,99813.58
2019-01-20T17:36:54.962Z,99812.34
2019-01-20T17:39:22.083Z,99807.49
2019-01-20T17:41:49.141Z,99810.70
2019-01-20T17:44:16.252Z,99811.75
2019-01-20T17:46:42.950Z,99819.70
2019-01-20T17:49:09.690Z,99822.07
2019-01-20T17:51:36.812Z,99828.88
2019-01-20T17:54:03.973Z,99832.54
2019-01-20T17:56:30.634Z,99831.20
2019-01-20T17:58:58.469Z,99835.47
2019-01-20T18:01:25.592Z,99835.89
2019-01-20T18:03:53.307Z,99835.12
2019-01-20T18:06:20.366Z,99840.05
2019-01-20T18:08:47.018Z,99839.38
2019-01-20T18:11:13.744Z,99842.02
2019-01-20T18:13:40.475Z,99841.20
2019-01-20T18:16:07.615Z,99846.16
2019-01-20T18:18:34.750Z,99852.20
2019-01-20T18:21:01.894Z,99849.88
2019-01-20T18:23:28.945Z,99854.50
2019-01-20T18:25:56.087Z,99861.89
2019-01-20T18:28:22.843Z,99858.22
2019-01-20T18:30:49.517Z,99862.05
2019-01-20T18:33:16.636Z,99860.82
2019-01-20T18:35:43.788Z,99866.64
2019-01-20T18:38:10.796Z,99864.73
2019-01-20T18:40:38.896Z,99862.95
2019-01-20T18:43:05.648Z,99864.63
2019-01-20T18:45:32.791Z,99870.11
2019-01-20T18:47:59.912Z,99872.49
2019-01-20T18:50:26.574Z,99880.82
2019-01-20T18:52:53.269Z,99879.19
2019-01-20T18:55:20.037Z,99877.44
2019-01-20T18:57:47.308Z,99881.77
2019-01-20T19:00:14.083Z,99880.66
2019-01-20T19:02:40.720Z,99879.16
2019-01-20T19:05:07.485Z,99884.22
2019-01-20T19:07:40.650Z,99888.36
2019-01-20T19:10:03.765Z,99890.59
2019-01-20T19:12:30.579Z,99894.39
2019-01-20T19:14:57.203Z,99895.14
2019-01-20T19:17:24.320Z,99898.03
2019-01-20T19:19:51.071Z,99890.66
2019-01-20T19:22:18.105Z,99893.28
2019-01-20T19:24:45.247Z,99897.92
2019-01-20T19:27:12.417Z,99896.95
2019-01-20T19:29:39.104Z,99904.13
2019-01-20T19:32:06.190Z,99907.11
2019-01-20T19:34:32.992Z,99910.15
2019-01-20T19:36:59.668Z,99907.95
2019-01-20T19:39:26.812Z,99914.72
2019-01-20T19:41:53.961Z,99913.01
2019-01-20T19:44:20.656Z,99917.28
2019-01-20T19:46:47.354Z,99912.45
2019-01-20T19:49:14.159Z,99917.76
2019-01-20T19:51:40.859Z,99918.50
2019-01-20T19:54:07.976Z,99922.95
2019-01-20T19:56:35.727Z,99926.85
2019-01-20T19:59:02.843Z,99927.55
2019-01-20T20:01:30.976Z,99926.13
2019-01-20T20:03:58.521Z,99927.36
2019-01-20T20:06:25.580Z,99935.19
2019-01-20T20:08:52.244Z,99931.80
2019-01-20T20:11:19.853Z,99934.00
2019-01-20T20:13:47.178Z,99936.55
2019-01-20T20:16:14.165Z,99936.52
2019-01-20T20:18:41.391Z,99937.41
2019-01-20T20:21:08.501Z,99941.47
2019-01-20T20:23:35.215Z,99940.53
2019-01-20T20:26:01.937Z,99945.78
2019-01-20T20:28:28.638Z,99948.90
2019-01-20T20:30:55.771Z,99950.61
2019-01-20T20:33:22.444Z,99954.27
2019-01-20T20:35:49.560Z,99966.36
2019-01-20T20:38:16.713Z,99966.03
2019-01-20T20:40:43.868Z,99971.03
2019-01-20T20:43:11.423Z,99974.72
2019-01-20T20:45:38.227Z,99974.51
2019-01-20T20:48:05.278Z,99977.34
2019-01-20T20:50:32.557Z,99983.16
2019-01-20T20:53:00.330Z,99991.51
2019-01-20T20:55:27.119Z,99996.59
2019-01-20T20:57:54.192Z,99991.70
2019-01-20T21:00:21.226Z,99999.08
2019-01-20T21:02:48.054Z,100006.77
2019-01-20T21:05:24.243Z,100013.94
2019-01-20T21:07:51.158Z,100015.69
2019-01-20T21:10:18.988Z,100017.84
2019-01-20T21:12:45.769Z,100023.00
2019-01-20T21:15:13.730Z,100020.73
2019-01-20T21:17:48.141Z,100023.94
2019-01-20T21:20:10.228Z,100023.03
2019-01-20T21:22:37.378Z,100027.41
2019-01-20T21:25:06.033Z,100027.50
2019-01-20T21:27:34.179Z,100028.39
2019-01-20T21:30:00.905Z,100034.94
2019-01-20T21:32:27.658Z,100038.33
2019-01-20T21:34:55.109Z,100038.42
2019-01-20T21:37:21.793Z,100039.07
2019-01-20T21:39:48.962Z,100046.93
2019-01-20T21:42:16.114Z,100037.34
2019-01-20T21:44:43.923Z,100043.07
2019-01-20T21:47:11.260Z,100046.46
2019-01-20T21:49:38.563Z,100048.47
2019-01-20T21:52:05.634Z,100053.27
2019-01-20T21:54:33.619Z,100048.36
2019-01-20T21:57:00.696Z,100056.06
2019-01-20T21:59:27.810Z,100055.94
2019-01-20T22:01:54.544Z,100057.16
2019-01-20T22:04:21.717Z,100058.47
2019-01-20T22:06:48.404Z,100064.58
2019-01-20T22:09:15.060Z,100063.91
2019-01-20T22:11:41.834Z,100065.66
2019-01-20T22:14:08.952Z,100068.94
2019-01-20T22:16:39.043Z,100064.52
2019-01-20T22:19:05.732Z,100064.42
2019-01-20T22:21:32.826Z,100069.11
2019-01-20T22:23:59.619Z,100074.72
2019-01-20T22:26:26.640Z,100073.23
2019-01-20T22:28:53.372Z,100070.91
2019-01-20T22:31:20.376Z,100080.41
2019-01-20T22:33:48.313Z,100079.31
2019-01-20T22:36:15.916Z,100070.75
2019-01-20T22:38:43.065Z,100074.33
2019-01-20T22:41:10.241Z,100074.67
2019-01-20T22:43:37.489Z,100074.19
2019-01-20T22:46:04.149Z,100077.23
2019-01-20T22:48:31.078Z,100074.58
2019-01-20T22:50:57.772Z,100074.80
2019-01-20T22:53:25.248Z,100075.88
2019-01-20T22:55:52.077Z,100075.40
2019-01-20T22:58:19.256Z,100075.87
2019-01-20T23:00:46.391Z,100072.93
2019-01-20T23:03:13.609Z,100076.09
2019-01-20T23:05:41.126Z,100082.46
2019-01-20T23:08:08.011Z,100083.28
2019-01-20T23:10:35.264Z,100078.20
2019-01-20T23:13:02.323Z,100083.88
2019-01-20T23:15:29.460Z,100081.26
2019-01-20T23:17:56.706Z,100080.09
2019-01-20T23:20:23.506Z,100082.17
2019-01-20T23:22:50.292Z,100086.41
2019-01-20T23:25:17.550Z,100089.32
2019-01-20T23:27:45.257Z,100084.12
2019-01-20T23:30:12.110Z,100093.19
2019-01-20T23:32:39.243Z,100091.05
2019-01-20T23:35:06.351Z,100095.78
2019-01-20T23:37:33.433Z,100098.00
2019-01-20T23:40:00.561Z,100097.13
2019-01-20T23:42:27.814Z,100094.44
2019-01-20T23:44:54.935Z,100097.55
2019-01-20T23:47:22.752Z,100101.57
2019-01-20T23:49:49.490Z,100099.98
2019-01-20T23:52:16.636Z,100098.09
2019-01-20T23:54:43.917Z,100098.70
2019-01-20T23:57:10.586Z,100095.88
2019-01-20T23:59:37.761Z,100096.57
